North East, Maryland
Current Conditions -  °F | °C
As of 2:51 AM on Thursday 23 Oct 2014 (Local Time) from KILG Reporting Station
Overcast Overcast  
Wind Chill: 52°   Ceiling: 4600
Heat Index: 52°   Visibility: 10mi
Dew Point: 46°   Wind: 17mph
Humidity: 80%   Direction: 320°NW
Pressure: 29.78"   Gusts: 29mph
Location:  39.6°N, 75.94°W
Report Text: KILG 230651Z 32015G25KT 10SM FEW034 BKN046 OVC060 11/08 A2978 RMK AO2 SLP085 T01110078
Loading
Personal Weather Stations






























Interactive Weather Map
Tropical Storm Tracking
New forecast layout! Learn more

10-Day Weather Forecast

Advertisements
Track Severe Weather on mobile